Time;durP1;ratioP1;P1;durP2;ratioP2;P2;SDS_P1;SDS_P2;PMS_P1;PMS_P2;Temp;Humidity;BMP_temperature;BMP_pressure;BME280_temperature;BME280_humidity;BME280_pressure;Samples;Min_cycle;Max_cycle;Signal;HPM_P1;HPM_P2
2022/07/21 00:08:37;;;;;;;5.00;4.50;;;;;;;21.33;49.25;99867.16;432789;1270;141747;-59
2022/07/21 00:18:43;;;;;;;5.90;3.80;;;;;;;21.10;49.82;99861.60;432046;1270;141838;-59
2022/07/21 00:28:49;;;;;;;5.20;3.80;;;;;;;20.92;50.37;99866.83;431245;1271;140921;-59
2022/07/21 00:38:56;;;;;;;8.20;4.60;;;;;;;20.52;51.18;99870.73;431149;1273;141257;-59
2022/07/21 00:49:02;;;;;;;5.50;4.00;;;;;;;20.11;52.36;99881.83;432071;1270;142595;-59
2022/07/21 00:59:08;;;;;;;4.60;4.10;;;;;;;19.79;53.29;99885.80;430853;1270;142250;-59
2022/07/21 01:09:14;;;;;;;4.40;4.00;;;;;;;19.55;54.17;99881.81;432596;1270;140777;-58
2022/07/21 01:19:20;;;;;;;7.40;5.10;;;;;;;19.35;54.83;99884.06;431925;1270;141049;-60
2022/07/21 01:29:26;;;;;;;5.20;4.80;;;;;;;19.17;55.51;99892.84;431876;1270;143063;-58
2022/07/21 01:49:56;;;;;;;6.10;5.40;;;;;;;18.85;56.71;99887.89;430693;1270;143676;-58
2022/07/21 02:00:03;;;;;;;6.80;5.20;;;;;;;18.72;57.39;99873.65;431773;1270;141003;-59
2022/07/21 02:10:10;;;;;;;7.10;4.70;;;;;;;18.61;57.71;99866.81;432316;1270;142250;-59
2022/07/21 02:20:16;;;;;;;5.30;4.80;;;;;;;18.55;58.33;99858.38;430827;1270;142309;-59
2022/07/21 02:30:22;;;;;;;5.30;4.80;;;;;;;18.51;58.74;99862.44;431249;1270;142474;-59
2022/07/21 02:40:28;;;;;;;6.50;5.80;;;;;;;18.44;58.91;99867.73;431116;1271;143742;-62
2022/07/21 02:50:38;;;;;;;6.60;6.00;;;;;;;18.29;59.47;99884.30;431881;1270;141897;-59
2022/07/21 03:00:49;;;;;;;6.70;4.90;;;;;;;18.26;59.81;99877.38;431387;1271;141482;-58
2022/07/21 03:10:55;;;;;;;6.60;5.20;;;;;;;18.29;60.20;99874.05;430684;1270;142455;-59
2022/07/21 03:21:01;;;;;;;7.20;5.40;;;;;;;18.54;60.21;99860.39;431407;1271;142478;-61
2022/07/21 03:31:07;;;;;;;5.70;5.20;;;;;;;19.06;59.51;99856.85;431201;1270;142572;-58
2022/07/21 03:41:13;;;;;;;6.90;5.70;;;;;;;19.19;59.17;99852.60;430697;1270;142389;-60
2022/07/21 03:51:19;;;;;;;9.00;5.20;;;;;;;19.42;58.76;99855.12;431177;1270;145390;-59
2022/07/21 04:01:25;;;;;;;6.50;5.60;;;;;;;19.65;58.38;99847.95;430111;1271;164671;-59
2022/07/21 04:11:31;;;;;;;7.50;5.20;;;;;;;20.04;57.80;99842.55;431039;1271;143446;-58
2022/07/21 04:21:37;;;;;;;6.40;5.40;;;;;;;22.55;55.74;99850.10;431589;1271;143255;-58
2022/07/21 04:31:43;;;;;;;6.40;5.70;;;;;;;27.15;48.08;99846.59;431488;1270;143321;-60
2022/07/21 04:41:49;;;;;;;5.40;4.60;;;;;;;29.64;43.20;99839.21;431441;1270;142111;-58
2022/07/21 04:51:55;;;;;;;4.30;3.90;;;;;;;32.25;39.13;99842.41;431096;1270;143959;-59
2022/07/21 05:02:09;;;;;;;4.50;4.10;;;;;;;34.86;35.13;99857.46;431053;1270;141719;-59
2022/07/21 05:12:15;;;;;;;6.80;4.30;;;;;;;36.97;31.74;99854.73;431898;1270;140842;-59
2022/07/21 05:22:21;;;;;;;4.20;3.80;;;;;;;38.27;29.14;99848.52;431713;1270;140373;-58
2022/07/21 05:32:26;;;;;;;4.60;4.20;;;;;;;39.55;27.13;99849.52;432413;1270;140434;-61
2022/07/21 05:42:32;;;;;;;4.10;3.30;;;;;;;41.63;25.17;99853.14;431666;1270;140670;-59
2022/07/21 05:53:02;;;;;;;3.70;3.40;;;;;;;43.62;22.99;99853.15;431411;1270;142826;-59
2022/07/21 06:03:08;;;;;;;3.40;3.10;;;;;;;45.95;21.09;99861.77;431765;1270;140803;-59
2022/07/21 06:13:17;;;;;;;4.80;4.40;;;;;;;46.41;19.54;99863.30;431651;1270;141555;-59
2022/07/21 06:23:24;;;;;;;6.40;4.50;;;;;;;48.10;18.73;99869.48;431940;1270;140932;-60
2022/07/21 06:33:30;;;;;;;4.00;3.70;;;;;;;50.51;17.09;99863.39;431666;1271;141071;-61
2022/07/21 06:43:35;;;;;;;4.90;4.40;;;;;;;51.22;16.28;99861.07;430364;1271;141666;-60
2022/07/21 06:53:42;;;;;;;4.10;3.70;;;;;;;52.57;14.94;99865.25;431129;1271;142165;-62
2022/07/21 07:03:48;;;;;;;5.50;5.20;;;;;;;53.11;14.22;99874.41;431421;1271;141669;-62
2022/07/21 07:13:54;;;;;;;5.90;5.20;;;;;;;53.83;13.67;99871.77;430676;1271;141622;-59
2022/07/21 07:24:10;;;;;;;6.70;6.20;;;;;;;53.05;13.29;99872.11;431290;1270;141901;-62
2022/07/21 07:34:16;;;;;;;8.40;7.80;;;;;;;53.78;13.19;99874.90;431343;1271;141374;-59
2022/07/21 07:44:22;;;;;;;8.60;8.20;;;;;;;54.57;12.66;99877.15;430857;1270;142451;-61
2022/07/21 07:54:28;;;;;;;9.80;9.40;;;;;;;55.52;12.07;99879.44;431276;1269;142146;-59
2022/07/21 08:04:35;;;;;;;4.50;4.20;;;;;;;57.14;11.62;99879.16;430837;1270;141213;-59
2022/07/21 08:14:41;;;;;;;3.00;2.80;;;;;;;52.34;12.78;99860.44;431826;1270;145474;-58
2022/07/21 08:24:46;;;;;;;5.10;3.00;;;;;;;45.30;15.95;99848.97;431752;1270;141561;-58
2022/07/21 08:34:52;;;;;;;5.80;3.10;;;;;;;41.03;18.65;99843.47;431104;1271;142089;-60
2022/07/21 08:44:58;;;;;;;3.90;3.50;;;;;;;38.58;21.14;99837.65;431917;1271;141454;-60
2022/07/21 08:55:05;;;;;;;6.70;4.00;;;;;;;36.83;23.04;99839.39;431892;1271;141494;-60
2022/07/21 09:05:12;;;;;;;4.30;3.60;;;;;;;35.88;24.01;99829.84;431599;1270;147321;-60
2022/07/21 09:15:21;;;;;;;3.50;3.20;;;;;;;35.17;24.82;99825.45;431753;1270;142589;-60
2022/07/21 09:25:38;;;;;;;3.30;3.00;;;;;;;35.04;25.14;99822.42;431677;1270;141713;-60
2022/07/21 09:35:54;;;;;;;9.00;3.20;;;;;;;35.10;25.41;99809.57;431896;1270;141829;-59
2022/07/21 09:46:03;;;;;;;4.90;3.00;;;;;;;34.94;25.16;99805.25;432114;1270;142321;-57
2022/07/21 09:56:09;;;;;;;4.60;2.90;;;;;;;34.43;25.17;99794.83;431224;1271;145282;-58
2022/07/21 10:06:18;;;;;;;3.00;2.80;;;;;;;33.71;24.76;99793.16;431875;1271;145146;-59
2022/07/21 10:16:24;;;;;;;3.80;2.90;;;;;;;33.51;24.98;99798.92;430977;1270;140679;-59
2022/07/21 10:26:30;;;;;;;2.70;2.50;;;;;;;33.32;25.25;99793.67;431998;1271;140566;-59
2022/07/21 10:36:47;;;;;;;4.20;2.50;;;;;;;33.31;25.25;99792.69;432012;1270;141187;-58
2022/07/21 10:47:03;;;;;;;8.30;3.20;;;;;;;32.72;25.82;99790.77;431630;1271;140388;-59
2022/07/21 10:57:29;;;;;;;3.00;2.50;;;;;;;32.48;25.94;99791.98;432366;1269;141571;-60
2022/07/21 11:08:05;;;;;;;3.20;2.50;;;;;;;32.35;25.67;99777.38;431646;1270;142631;-60
2022/07/21 11:18:12;;;;;;;3.20;2.80;;;;;;;32.19;25.93;99768.77;431386;1271;141884;-61
2022/07/21 11:28:20;;;;;;;3.50;2.90;;;;;;;31.96;25.98;99768.53;431208;1271;362353;-59
2022/07/21 11:38:26;;;;;;;4.00;2.50;;;;;;;31.91;26.33;99771.89;431125;1270;140444;-58
2022/07/21 11:48:35;;;;;;;4.30;2.80;;;;;;;31.94;26.45;99757.14;431999;1271;143965;-59
2022/07/21 11:58:41;;;;;;;2.70;2.20;;;;;;;32.01;26.27;99757.34;430958;1271;142073;-60
2022/07/21 12:08:50;;;;;;;3.40;3.00;;;;;;;32.07;26.71;99740.70;431864;1271;141198;-64
2022/07/21 12:19:13;;;;;;;3.90;3.10;;;;;;;32.06;26.43;99738.66;432379;1270;140736;-57
2022/07/21 12:29:29;;;;;;;4.50;2.80;;;;;;;32.02;26.66;99728.96;432028;1271;144687;-58
2022/07/21 12:50:05;;;;;;;2.30;2.10;;;;;;;31.96;26.24;99727.86;432062;1270;142042;-59
2022/07/21 13:00:21;;;;;;;3.60;2.80;;;;;;;31.91;25.94;99718.85;431934;1271;142096;-60
2022/07/21 13:10:28;;;;;;;5.00;2.80;;;;;;;31.94;26.02;99709.35;430678;1271;142003;-59
2022/07/21 13:20:34;;;;;;;5.20;2.70;;;;;;;31.98;25.85;99696.63;431305;1271;141924;-59
2022/07/21 13:30:40;;;;;;;9.70;3.40;;;;;;;31.97;26.23;99687.54;431729;1271;142021;-58
2022/07/21 13:40:47;;;;;;;4.10;2.80;;;;;;;32.06;25.89;99669.05;431028;1273;141446;-59
2022/07/21 13:51:15;;;;;;;6.80;3.20;;;;;;;32.09;26.32;99655.85;431551;1271;141073;-62
2022/07/21 14:01:20;;;;;;;5.90;2.80;;;;;;;32.10;26.52;99658.05;433014;1273;142844;-56
2022/07/21 14:11:28;;;;;;;3.70;2.80;;;;;;;32.16;26.42;99651.98;431945;1271;141673;-59
2022/07/21 14:21:34;;;;;;;4.90;3.20;;;;;;;32.16;26.21;99645.73;431885;1271;141762;-59
2022/07/21 14:31:39;;;;;;;5.10;3.20;;;;;;;32.14;26.25;99639.29;431492;1270;140904;-59
2022/07/21 14:41:45;;;;;;;5.30;2.60;;;;;;;32.17;26.51;99636.74;432241;1271;140699;-61
2022/07/21 14:51:51;;;;;;;3.30;2.50;;;;;;;32.17;26.14;99630.54;432006;1271;142009;-59
2022/07/21 15:01:57;;;;;;;6.80;3.60;;;;;;;32.15;26.03;99615.36;431095;1270;141422;-58
2022/07/21 15:12:07;;;;;;;6.10;3.50;;;;;;;32.22;26.87;99605.71;431238;1271;140317;-58
2022/07/21 15:22:13;;;;;;;5.60;3.10;;;;;;;32.19;26.21;99607.23;431586;1271;141417;-57
2022/07/21 15:32:20;;;;;;;4.50;3.00;;;;;;;32.16;26.38;99599.14;431264;1271;141291;-57
2022/07/21 15:42:28;;;;;;;11.20;2.50;;;;;;;32.07;25.79;99588.21;431889;1271;141035;-59
2022/07/21 15:52:34;;;;;;;4.60;3.00;;;;;;;32.03;25.17;99580.36;431322;1270;141190;-59
2022/07/21 16:02:41;;;;;;;4.30;2.80;;;;;;;32.00;25.45;99574.94;431650;1270;140671;-59
2022/07/21 16:12:47;;;;;;;5.30;2.60;;;;;;;31.95;26.06;99570.83;431285;1271;144869;-59
2022/07/21 16:22:53;;;;;;;4.80;2.50;;;;;;;31.86;26.23;99564.00;430674;1271;141803;-57
2022/07/21 16:32:57;;;;;;;;;;;;;;;31.73;26.68;99561.02;431943;1270;141896;-59
2022/07/21 16:43:03;;;;;;;3.10;2.70;;;;;;;31.62;27.04;99555.67;431535;1270;128223;-59
2022/07/21 16:53:09;;;;;;;4.40;3.00;;;;;;;31.47;27.50;99556.89;430996;1270;142720;-59
2022/07/21 17:03:15;;;;;;;3.40;3.00;;;;;;;31.31;28.14;99550.49;431474;1271;141299;-60
2022/07/21 17:13:21;;;;;;;4.20;2.70;;;;;;;31.11;28.44;99548.94;431583;1270;143625;-59
2022/07/21 17:23:27;;;;;;;8.50;3.50;;;;;;;31.42;28.80;99549.81;431530;1271;142011;-59
2022/07/21 17:33:33;;;;;;;10.20;4.20;;;;;;;31.06;29.20;99542.65;431551;1271;146667;-59
2022/07/21 17:43:39;;;;;;;6.20;3.50;;;;;;;30.57;29.83;99538.63;431977;1271;141316;-59
2022/07/21 17:53:45;;;;;;;5.70;3.20;;;;;;;30.17;30.60;99529.73;431675;1270;141590;-58
2022/07/21 18:03:52;;;;;;;7.40;5.10;;;;;;;29.77;31.37;99532.02;440403;1271;141417;-57
2022/07/21 18:13:58;;;;;;;6.50;2.50;;;;;;;29.38;32.13;99530.19;441677;1269;141503;-58
2022/07/21 18:24:05;;;;;;;6.60;4.20;;;;;;;28.95;32.77;99520.46;431501;1270;140553;-59
2022/07/21 18:34:17;;;;;;;5.60;2.70;;;;;;;28.53;33.25;99530.01;431883;1269;141540;-58
2022/07/21 18:44:23;;;;;;;12.00;4.20;;;;;;;28.09;34.17;99524.80;431193;1270;142243;-58
2022/07/21 18:54:29;;;;;;;4.60;3.80;;;;;;;27.62;34.82;99529.66;431560;1270;140342;-57
2022/07/21 19:04:35;;;;;;;6.90;4.10;;;;;;;27.12;35.95;99532.11;430852;1271;146092;-58
2022/07/21 19:14:41;;;;;;;8.90;4.50;;;;;;;26.64;36.90;99531.55;434287;1270;141058;-60
2022/07/21 19:24:47;;;;;;;11.20;4.60;;;;;;;26.26;37.92;99535.19;435781;1270;142051;-60
2022/07/21 19:34:53;;;;;;;10.40;4.30;;;;;;;25.91;39.09;99535.66;430007;1270;141668;-58
2022/07/21 19:44:59;;;;;;;10.10;4.70;;;;;;;25.56;40.27;99540.67;438963;1270;141987;-59
2022/07/21 19:55:07;;;;;;;12.80;5.30;;;;;;;25.19;41.22;99543.71;433462;1270;141626;-59
2022/07/21 20:05:11;;;;;;;;;;;;;;;24.82;42.42;99544.78;431107;1270;140667;-59
2022/07/21 20:15:17;;;;;;;9.30;4.40;;;;;;;24.56;43.05;99542.95;431821;1270;130957;-60
2022/07/21 20:25:23;;;;;;;7.20;4.50;;;;;;;24.32;43.48;99540.39;431428;1271;143176;-57
2022/07/21 20:35:29;;;;;;;10.50;5.10;;;;;;;24.01;44.42;99530.33;431672;1270;142400;-59
2022/07/21 20:45:35;;;;;;;13.20;5.20;;;;;;;23.71;45.20;99532.84;432071;1270;141407;-59
2022/07/21 20:55:40;;;;;;;8.60;5.20;;;;;;;23.48;45.68;99525.19;430823;1270;141912;-59
2022/07/21 21:05:53;;;;;;;8.50;4.80;;;;;;;23.35;45.66;99515.81;431327;1270;143012;-60
2022/07/21 21:15:59;;;;;;;7.40;4.60;;;;;;;23.28;45.46;99519.07;431870;1270;142348;-58
2022/07/21 21:26:05;;;;;;;8.30;4.30;;;;;;;23.19;45.77;99505.91;431168;1270;141438;-58
2022/07/21 21:36:11;;;;;;;8.50;5.10;;;;;;;23.10;45.99;99499.16;431203;1271;141385;-58
2022/07/21 21:46:17;;;;;;;7.00;4.50;;;;;;;23.08;45.78;99491.40;431285;1271;141412;-60
2022/07/21 21:56:23;;;;;;;6.10;3.80;;;;;;;23.04;45.84;99487.19;430656;1271;141655;-59
2022/07/21 22:06:29;;;;;;;5.80;4.40;;;;;;;22.90;46.11;99484.30;432098;1270;144868;-59
2022/07/21 22:16:35;;;;;;;6.10;4.00;;;;;;;22.77;46.47;99480.67;431123;1271;145235;-57
2022/07/21 22:26:41;;;;;;;8.40;4.60;;;;;;;22.59;46.74;99481.33;431843;1270;142033;-59
2022/07/21 22:36:47;;;;;;;9.80;4.00;;;;;;;22.42;47.27;99473.44;431224;1270;143067;-59
2022/07/21 22:46:53;;;;;;;7.50;4.90;;;;;;;22.22;47.73;99477.23;430729;1271;144686;-58
2022/07/21 22:56:59;;;;;;;8.60;4.60;;;;;;;22.07;48.00;99484.39;431477;1270;146870;-58
2022/07/21 23:07:05;;;;;;;5.90;3.90;;;;;;;21.95;48.32;99480.02;431371;1270;147344;-58
2022/07/21 23:17:11;;;;;;;7.20;4.50;;;;;;;21.77;48.91;99479.45;430822;1270;140753;-58
2022/07/21 23:27:17;;;;;;;6.60;4.40;;;;;;;21.51;49.62;99489.96;431030;1270;428476;-58
2022/07/21 23:37:23;;;;;;;7.70;5.00;;;;;;;21.16;51.01;99502.02;431670;1270;141004;-58
2022/07/21 23:47:29;;;;;;;5.20;4.70;;;;;;;20.82;51.85;99540.19;432106;1271;141496;-60
2022/07/21 23:57:35;;;;;;;7.70;5.40;;;;;;;20.53;52.45;99543.25;431386;1271;143324;-59
